createdAt,value
2022-11-23T00:00:16.777Z,8.20
2022-11-23T00:02:43.339Z,8.20
2022-11-23T00:05:10.485Z,8.20
2022-11-23T00:07:37.046Z,8.20
2022-11-23T00:10:03.820Z,8.20
2022-11-23T00:12:33.045Z,8.20
2022-11-23T00:14:59.575Z,8.20
2022-11-23T00:17:26.124Z,8.30
2022-11-23T00:19:52.735Z,8.20
2022-11-23T00:22:19.307Z,8.20
2022-11-23T00:24:45.851Z,8.20
2022-11-23T00:27:12.608Z,8.20
2022-11-23T00:29:39.294Z,8.20
2022-11-23T00:32:05.936Z,8.20
2022-11-23T00:34:32.482Z,8.20
2022-11-23T00:36:58.992Z,8.20
2022-11-23T00:39:25.546Z,8.20
2022-11-23T00:41:54.717Z,8.20
2022-11-23T00:44:23.666Z,8.20
2022-11-23T00:46:50.411Z,8.20
2022-11-23T00:49:19.374Z,8.20
2022-11-23T00:51:46.150Z,8.10
2022-11-23T00:54:14.956Z,8.10
2022-11-23T00:56:41.502Z,8.10
2022-11-23T00:59:09.201Z,8.10
2022-11-23T01:01:37.267Z,8.20
2022-11-23T01:04:05.490Z,8.10
2022-11-23T01:06:39.211Z,8.10
2022-11-23T01:09:17.707Z,8.10
2022-11-23T01:11:44.511Z,8.10
2022-11-23T01:14:11.132Z,8.10
2022-11-23T01:16:39.108Z,8.10
2022-11-23T01:19:10.348Z,8.10
2022-11-23T01:21:37.194Z,8.10
2022-11-23T01:24:06.746Z,8.10
2022-11-23T01:26:33.522Z,8.10
2022-11-23T01:29:02.695Z,8.10
2022-11-23T01:31:29.271Z,8.10
2022-11-23T01:33:59.351Z,8.10
2022-11-23T01:36:26.992Z,8.10
2022-11-23T01:38:53.678Z,8.10
2022-11-23T01:41:25.103Z,8.10
2022-11-23T01:43:52.092Z,8.10
2022-11-23T01:46:18.852Z,8.10
2022-11-23T01:48:45.399Z,8.10
2022-11-23T01:51:14.827Z,8.10
2022-11-23T01:53:44.354Z,8.10
2022-11-23T01:56:13.500Z,8.10
2022-11-23T01:58:41.636Z,8.10
2022-11-23T02:01:08.550Z,8.10
2022-11-23T02:03:36.392Z,8.10
2022-11-23T02:06:04.837Z,8.20
2022-11-23T02:08:31.565Z,8.10
2022-11-23T02:10:58.952Z,8.20
2022-11-23T02:13:30.170Z,8.20
2022-11-23T02:18:52.262Z,8.20
2022-11-23T02:21:18.832Z,8.20
2022-11-23T02:23:57.346Z,8.20
2022-11-23T02:26:23.904Z,8.20
2022-11-23T02:28:56.451Z,8.20
2022-11-23T02:31:23.131Z,8.20
2022-11-23T02:33:49.721Z,8.20
2022-11-23T02:36:25.401Z,8.20
2022-11-23T02:38:52.126Z,8.20
2022-11-23T02:41:18.662Z,8.20
2022-11-23T02:43:45.441Z,8.20
2022-11-23T02:46:13.263Z,8.20
2022-11-23T02:48:39.793Z,8.20
2022-11-23T02:51:06.414Z,8.20
2022-11-23T02:53:33.200Z,8.20
2022-11-23T02:55:59.838Z,8.20
2022-11-23T02:58:26.541Z,8.20
2022-11-23T03:00:53.152Z,8.20
2022-11-23T03:03:19.741Z,8.20
2022-11-23T03:05:46.321Z,8.20
2022-11-23T03:08:12.872Z,8.30
2022-11-23T03:10:39.374Z,8.20
2022-11-23T03:13:05.909Z,8.30
2022-11-23T03:15:34.599Z,8.20
2022-11-23T03:18:03.284Z,8.20
2022-11-23T03:20:29.810Z,8.20
2022-11-23T03:22:56.462Z,8.20
2022-11-23T03:25:23.053Z,8.20
2022-11-23T03:27:49.593Z,8.20
2022-11-23T03:30:16.118Z,8.20
2022-11-23T03:32:42.629Z,8.20
2022-11-23T03:35:11.421Z,8.20
2022-11-23T03:37:37.959Z,8.20
2022-11-23T03:40:06.930Z,8.20
2022-11-23T03:42:33.478Z,8.20
2022-11-23T03:45:02.507Z,8.20
2022-11-23T03:47:29.040Z,8.20
2022-11-23T03:49:55.556Z,8.30
2022-11-23T03:52:22.063Z,8.20
2022-11-23T03:54:48.603Z,8.20
2022-11-23T03:57:15.256Z,8.20
2022-11-23T03:59:41.761Z,8.20
2022-11-23T04:02:08.362Z,8.20
2022-11-23T04:04:37.574Z,8.20
2022-11-23T04:07:04.275Z,8.20
2022-11-23T04:09:31.168Z,8.20
2022-11-23T04:11:57.888Z,8.20
2022-11-23T04:14:24.431Z,8.30
2022-11-23T04:16:51.085Z,8.20
2022-11-23T04:19:20.161Z,8.20
2022-11-23T04:21:48.961Z,8.20
2022-11-23T04:24:15.507Z,8.20
2022-11-23T04:26:44.531Z,8.20
2022-11-23T04:29:13.490Z,8.30
2022-11-23T04:31:42.151Z,8.30
2022-11-23T04:34:08.718Z,8.20
2022-11-23T04:36:35.396Z,8.20
2022-11-23T04:39:03.737Z,8.20
2022-11-23T04:41:30.633Z,8.30
2022-11-23T04:43:59.669Z,8.20
2022-11-23T04:46:26.235Z,8.20
2022-11-23T04:48:52.801Z,8.30
2022-11-23T04:51:19.338Z,8.20
2022-11-23T04:53:45.946Z,8.30
2022-11-23T04:56:12.573Z,8.20
2022-11-23T04:58:39.109Z,8.30
2022-11-23T05:01:08.332Z,8.20
2022-11-23T05:03:35.043Z,8.20
2022-11-23T05:06:07.278Z,8.20
2022-11-23T05:08:33.845Z,8.30
2022-11-23T05:11:00.336Z,8.30
2022-11-23T05:13:26.973Z,8.30
2022-11-23T05:15:53.572Z,8.30
2022-11-23T05:18:22.376Z,8.30
2022-11-23T05:20:48.946Z,8.30
2022-11-23T05:23:15.531Z,8.30
2022-11-23T05:25:42.077Z,8.20
2022-11-23T05:28:38.516Z,8.30
2022-11-23T05:31:00.881Z,8.20
2022-11-23T05:33:27.422Z,8.30
2022-11-23T05:35:53.975Z,8.20
2022-11-23T05:38:20.551Z,8.10
2022-11-23T05:40:47.157Z,8.10
2022-11-23T05:43:16.130Z,8.10
2022-11-23T05:45:42.663Z,8.10
2022-11-23T05:48:09.553Z,8.10
2022-11-23T05:50:36.410Z,8.10
2022-11-23T05:53:02.998Z,8.10
2022-11-23T05:55:29.632Z,8.10
2022-11-23T05:57:58.679Z,8.10
2022-11-23T06:00:25.184Z,8.10
2022-11-23T06:02:51.710Z,8.10
2022-11-23T06:05:18.279Z,8.10
2022-11-23T06:07:47.103Z,8.10
2022-11-23T06:10:13.744Z,8.10
2022-11-23T06:12:40.276Z,8.10
2022-11-23T06:15:09.543Z,8.10
2022-11-23T06:17:36.061Z,8.10
2022-11-23T06:20:02.805Z,8.10
2022-11-23T06:22:31.667Z,8.20
2022-11-23T06:24:58.247Z,8.10
2022-11-23T06:27:24.829Z,8.10
2022-11-23T06:29:51.378Z,8.20
2022-11-23T06:32:20.381Z,8.20
2022-11-23T06:34:46.955Z,8.20
2022-11-23T06:37:13.564Z,8.20
2022-11-23T06:39:40.689Z,8.20
2022-11-23T06:42:36.720Z,8.20
2022-11-23T06:44:56.033Z,8.30
2022-11-23T06:47:26.382Z,8.30
2022-11-23T06:49:53.195Z,8.20
2022-11-23T06:52:19.807Z,8.30
2022-11-23T06:54:48.915Z,8.30
2022-11-23T06:57:16.232Z,8.30
2022-11-23T06:59:45.679Z,8.30
2022-11-23T07:02:12.549Z,8.30
2022-11-23T07:04:39.101Z,8.30
2022-11-23T07:07:07.456Z,8.30
2022-11-23T07:09:34.472Z,8.30
2022-11-23T07:12:03.565Z,8.30
2022-11-23T07:14:30.159Z,8.30
2022-11-23T07:16:56.766Z,8.30
2022-11-23T07:19:23.314Z,8.30
2022-11-23T07:21:49.833Z,8.30
2022-11-23T07:24:16.360Z,8.30
2022-11-23T07:26:45.094Z,8.30
2022-11-23T07:29:11.832Z,8.30
2022-11-23T07:31:40.832Z,8.30
2022-11-23T07:34:09.242Z,8.30
2022-11-23T07:36:35.769Z,8.30
2022-11-23T07:39:02.488Z,8.30
2022-11-23T07:41:29.095Z,8.30
2022-11-23T07:43:55.622Z,8.30
2022-11-23T07:46:22.154Z,8.30
2022-11-23T07:48:48.727Z,8.30
2022-11-23T07:51:16.359Z,8.30
2022-11-23T07:53:42.894Z,8.30
2022-11-23T07:56:09.412Z,8.30
2022-11-23T07:58:35.945Z,8.30
2022-11-23T08:01:07.232Z,8.30
2022-11-23T08:03:33.883Z,8.30
2022-11-23T08:06:00.500Z,8.30
2022-11-23T08:08:27.042Z,8.20
2022-11-23T08:10:56.072Z,8.20
2022-11-23T08:13:22.798Z,8.20
2022-11-23T08:15:55.258Z,8.20
2022-11-23T08:18:23.080Z,8.00
2022-11-23T08:20:49.821Z,8.00
2022-11-23T08:23:16.356Z,7.90
2022-11-23T08:25:42.909Z,7.80
2022-11-23T08:28:09.501Z,7.80
2022-11-23T08:30:36.263Z,7.80
2022-11-23T08:33:04.586Z,7.70
2022-11-23T08:35:35.193Z,7.80
2022-11-23T08:38:01.925Z,7.80
2022-11-23T08:40:31.214Z,7.90
2022-11-23T08:42:57.766Z,7.90
2022-11-23T08:45:24.888Z,7.90
2022-11-23T08:47:51.666Z,7.90
2022-11-23T08:50:18.599Z,8.00
2022-11-23T08:52:47.678Z,8.00
2022-11-23T08:55:17.220Z,8.10
2022-11-23T08:57:46.143Z,8.10
2022-11-23T09:00:13.056Z,8.20
2022-11-23T09:02:39.638Z,8.20
2022-11-23T09:05:07.540Z,8.30
2022-11-23T09:07:36.646Z,8.40
2022-11-23T09:10:05.632Z,8.60
2022-11-23T09:12:32.816Z,8.70
2022-11-23T09:14:59.379Z,8.70
2022-11-23T09:17:25.935Z,8.70
2022-11-23T09:19:52.498Z,8.70
2022-11-23T09:22:21.214Z,8.80
2022-11-23T09:24:47.794Z,8.70
2022-11-23T09:27:14.353Z,8.80
2022-11-23T09:29:40.897Z,8.70
2022-11-23T09:32:09.839Z,8.80
2022-11-23T09:34:36.373Z,8.80
2022-11-23T09:37:03.250Z,8.80
2022-11-23T09:39:29.811Z,8.80
2022-11-23T09:41:56.358Z,8.80
2022-11-23T09:44:49.275Z,8.90
2022-11-23T09:47:21.619Z,9.00
2022-11-23T09:49:51.011Z,9.00
2022-11-23T09:52:21.808Z,9.00
2022-11-23T09:54:49.735Z,9.10
2022-11-23T09:57:22.033Z,9.20
2022-11-23T09:59:57.440Z,9.30
2022-11-23T10:02:25.738Z,9.30
2022-11-23T10:04:53.428Z,9.40
2022-11-23T10:07:46.593Z,9.50
2022-11-23T10:10:32.148Z,9.50
2022-11-23T10:13:12.594Z,9.40
2022-11-23T10:15:45.585Z,9.50
2022-11-23T10:18:35.349Z,9.50
2022-11-23T10:21:05.130Z,9.40
2022-11-23T10:23:45.532Z,9.40
2022-11-23T10:26:16.523Z,9.40
2022-11-23T10:28:43.737Z,9.40
2022-11-23T10:31:15.404Z,9.50
2022-11-23T10:33:47.976Z,9.50
2022-11-23T10:36:17.153Z,9.60
2022-11-23T10:38:45.020Z,9.60
2022-11-23T10:41:16.571Z,9.60
2022-11-23T10:44:15.607Z,9.70
2022-11-23T10:46:44.579Z,9.80
2022-11-23T10:49:14.267Z,9.80
2022-11-23T10:51:48.208Z,9.80
2022-11-23T10:54:28.307Z,9.80
2022-11-23T10:56:55.732Z,9.80
2022-11-23T10:59:26.903Z,9.90
2022-11-23T11:02:11.229Z,9.90
2022-11-23T11:04:37.836Z,9.90
2022-11-23T11:07:19.486Z,10.00
2022-11-23T11:10:06.334Z,10.00
2022-11-23T11:12:33.856Z,10.00
2022-11-23T11:15:10.756Z,10.10
2022-11-23T11:17:39.602Z,10.00
2022-11-23T11:20:31.193Z,10.00
2022-11-23T11:23:03.680Z,10.00
2022-11-23T11:25:39.353Z,10.00
2022-11-23T11:28:22.120Z,10.00
2022-11-23T11:31:02.806Z,10.00
2022-11-23T11:33:43.683Z,9.90
2022-11-23T11:36:13.177Z,10.00
2022-11-23T11:38:41.535Z,10.00
2022-11-23T11:41:11.935Z,9.90
2022-11-23T11:43:40.254Z,9.90
2022-11-23T11:46:29.024Z,9.80
2022-11-23T11:49:00.149Z,9.80
2022-11-23T11:51:31.922Z,9.80
2022-11-23T11:54:01.568Z,9.80
2022-11-23T11:56:37.673Z,9.80
2022-11-23T11:59:22.518Z,9.80
2022-11-23T12:01:55.416Z,9.80
2022-11-23T12:04:25.894Z,9.80
2022-11-23T12:07:14.582Z,9.80
2022-11-23T12:09:42.748Z,9.90
2022-11-23T12:12:13.071Z,10.00
2022-11-23T12:14:39.602Z,10.10
2022-11-23T12:17:36.769Z,10.10
2022-11-23T12:20:03.289Z,10.10
2022-11-23T12:22:36.256Z,10.10
2022-11-23T12:25:11.838Z,10.20
2022-11-23T12:27:48.531Z,10.20
2022-11-23T12:30:18.577Z,10.20
2022-11-23T12:33:05.360Z,10.20
2022-11-23T12:35:50.762Z,10.30
2022-11-23T12:38:20.074Z,10.30
2022-11-23T12:41:04.147Z,10.40
2022-11-23T12:43:49.285Z,10.40
2022-11-23T12:46:18.786Z,10.40
2022-11-23T12:48:57.423Z,10.50
2022-11-23T12:51:25.379Z,10.50
2022-11-23T12:54:02.512Z,10.60
2022-11-23T12:56:47.712Z,10.60
2022-11-23T12:59:14.534Z,10.60
2022-11-23T13:01:42.776Z,10.60
2022-11-23T13:04:26.955Z,10.50
2022-11-23T13:10:00.819Z,10.50
2022-11-23T13:12:46.073Z,10.50
2022-11-23T13:15:18.624Z,10.50
2022-11-23T13:17:50.569Z,10.50
2022-11-23T13:20:20.306Z,10.50
2022-11-23T13:22:47.327Z,10.50
2022-11-23T13:25:16.264Z,10.60
2022-11-23T13:27:43.112Z,10.50
2022-11-23T13:30:21.865Z,10.50
2022-11-23T13:32:54.340Z,10.50
2022-11-23T13:35:20.919Z,10.50
2022-11-23T13:37:56.611Z,10.50
2022-11-23T13:40:26.184Z,10.50
2022-11-23T13:42:54.057Z,10.40
2022-11-23T13:45:23.193Z,10.40
2022-11-23T13:48:34.173Z,10.40
2022-11-23T13:51:01.135Z,10.30
2022-11-23T13:53:35.046Z,10.30
2022-11-23T13:56:20.274Z,10.30
2022-11-23T13:58:53.436Z,10.30
2022-11-23T14:01:38.973Z,10.30
2022-11-23T14:04:22.389Z,10.30
2022-11-23T14:06:56.731Z,10.30
2022-11-23T14:09:41.860Z,10.30
2022-11-23T14:12:08.647Z,10.30
2022-11-23T14:14:47.586Z,10.30
2022-11-23T14:17:20.108Z,10.30
2022-11-23T14:20:07.560Z,10.30
2022-11-23T14:22:37.107Z,10.30
2022-11-23T14:25:29.092Z,10.30
2022-11-23T14:28:13.625Z,10.20
2022-11-23T14:30:46.281Z,10.20
2022-11-23T14:33:27.857Z,10.10
2022-11-23T14:36:03.621Z,10.10
2022-11-23T14:38:33.838Z,10.10
2022-11-23T14:41:08.286Z,10.10
2022-11-23T14:43:36.349Z,10.00
2022-11-23T14:46:08.186Z,10.00
2022-11-23T14:48:35.708Z,9.90
2022-11-23T14:51:08.584Z,9.90
2022-11-23T14:53:36.431Z,9.90
2022-11-23T14:56:03.084Z,9.90
2022-11-23T14:58:31.379Z,9.80
2022-11-23T15:01:01.942Z,9.80
2022-11-23T15:06:18.215Z,9.70
2022-11-23T15:08:53.356Z,9.70
2022-11-23T15:11:22.066Z,9.60
2022-11-23T15:13:50.029Z,9.60
2022-11-23T15:16:17.846Z,9.60
2022-11-23T15:18:47.104Z,9.60
2022-11-23T15:21:25.360Z,9.50
2022-11-23T15:23:54.564Z,9.50
2022-11-23T15:26:46.354Z,9.50
2022-11-23T15:29:27.672Z,9.40
2022-11-23T15:32:22.276Z,9.40
2022-11-23T15:34:43.320Z,9.40
2022-11-23T15:37:10.113Z,9.40
2022-11-23T15:39:37.216Z,9.40
2022-11-23T15:42:03.882Z,9.40
2022-11-23T15:44:30.894Z,9.30
2022-11-23T15:47:06.062Z,9.30
2022-11-23T15:49:41.835Z,9.20
2022-11-23T15:52:14.077Z,9.20
2022-11-23T15:54:43.053Z,9.20
2022-11-23T15:57:13.266Z,9.20
2022-11-23T15:59:42.883Z,9.20
2022-11-23T16:02:15.215Z,9.10
2022-11-23T16:04:43.657Z,9.10
2022-11-23T16:07:16.751Z,9.10
2022-11-23T16:09:52.797Z,9.00
2022-11-23T16:12:24.032Z,9.00
2022-11-23T16:14:50.578Z,8.90
2022-11-23T16:17:21.786Z,8.90
2022-11-23T16:19:56.056Z,8.80
2022-11-23T16:22:28.658Z,8.80
2022-11-23T16:25:06.755Z,8.80
2022-11-23T16:27:33.323Z,8.70
2022-11-23T16:30:03.368Z,8.80
2022-11-23T16:32:31.328Z,8.80
2022-11-23T16:34:58.894Z,8.80
2022-11-23T16:37:26.305Z,8.70
2022-11-23T16:39:52.893Z,8.70
2022-11-23T16:42:19.456Z,8.70
2022-11-23T16:44:46.072Z,8.70
2022-11-23T16:47:18.045Z,8.70
2022-11-23T16:49:44.588Z,8.80
2022-11-23T16:52:12.424Z,8.70
2022-11-23T16:54:39.050Z,8.70
2022-11-23T16:57:05.831Z,8.70
2022-11-23T16:59:32.956Z,8.60
2022-11-23T17:01:59.937Z,8.60
2022-11-23T17:04:26.682Z,8.70
2022-11-23T17:06:55.425Z,8.70
2022-11-23T17:09:21.984Z,8.70
2022-11-23T17:11:50.652Z,8.70
2022-11-23T17:14:30.046Z,8.70
2022-11-23T17:16:56.849Z,8.70
2022-11-23T17:19:23.535Z,8.70
2022-11-23T17:21:50.093Z,8.70
2022-11-23T17:24:16.610Z,8.70
2022-11-23T17:26:45.510Z,8.70
2022-11-23T17:29:18.904Z,8.70
2022-11-23T17:31:49.472Z,8.60
2022-11-23T17:34:16.435Z,8.60
2022-11-23T17:36:46.121Z,8.60
2022-11-23T17:39:21.140Z,8.60
2022-11-23T17:41:48.509Z,8.60
2022-11-23T17:44:15.606Z,8.50
2022-11-23T17:46:42.759Z,8.50
2022-11-23T17:49:14.920Z,8.40
2022-11-23T17:51:43.007Z,8.50
2022-11-23T17:54:09.576Z,8.50
2022-11-23T17:56:36.212Z,8.50
2022-11-23T17:59:06.538Z,8.40
2022-11-23T18:01:34.284Z,8.30
2022-11-23T18:04:04.749Z,8.30
2022-11-23T18:06:31.500Z,8.30
2022-11-23T18:08:58.068Z,8.40
2022-11-23T18:11:24.754Z,8.40
2022-11-23T18:13:51.475Z,8.40
2022-11-23T18:16:19.338Z,8.50
2022-11-23T18:18:45.957Z,8.50
2022-11-23T18:21:14.337Z,8.50
2022-11-23T18:23:43.891Z,8.50
2022-11-23T18:26:10.430Z,8.50
2022-11-23T18:28:37.366Z,8.50
2022-11-23T18:31:03.937Z,8.50
2022-11-23T18:33:32.934Z,8.50
2022-11-23T18:36:05.168Z,8.50
2022-11-23T18:38:33.114Z,8.40
2022-11-23T18:40:59.806Z,8.40
2022-11-23T18:43:26.331Z,8.40
2022-11-23T18:45:55.662Z,8.40
2022-11-23T18:48:22.497Z,8.40
2022-11-23T18:50:49.268Z,8.40
2022-11-23T18:53:18.717Z,8.40
2022-11-23T18:55:45.286Z,8.40
2022-11-23T18:58:14.422Z,8.40
2022-11-23T19:00:41.031Z,8.40
2022-11-23T19:03:07.663Z,8.50
2022-11-23T19:05:36.703Z,8.50
2022-11-23T19:08:04.401Z,8.50
2022-11-23T19:10:31.693Z,8.50
2022-11-23T19:13:03.701Z,8.40
2022-11-23T19:15:34.278Z,8.50
2022-11-23T19:18:01.046Z,8.40
2022-11-23T19:20:28.162Z,8.40
2022-11-23T19:22:55.427Z,8.40
2022-11-23T19:25:21.982Z,8.40
2022-11-23T19:27:49.054Z,8.30
2022-11-23T19:30:15.899Z,8.40
2022-11-23T19:32:42.498Z,8.40
2022-11-23T19:35:09.072Z,8.40
2022-11-23T19:37:36.668Z,8.40
2022-11-23T19:40:03.625Z,8.40
2022-11-23T19:42:30.377Z,8.40
2022-11-23T19:44:56.968Z,8.40
2022-11-23T19:47:23.539Z,8.40
2022-11-23T19:49:50.119Z,8.40
2022-11-23T19:52:16.651Z,8.40
2022-11-23T19:54:43.255Z,8.40
2022-11-23T19:57:09.887Z,8.40
2022-11-23T19:59:38.663Z,8.40
2022-11-23T20:02:05.338Z,8.40
2022-11-23T20:04:32.112Z,8.40
2022-11-23T20:06:58.663Z,8.40
2022-11-23T20:09:27.620Z,8.40
2022-11-23T20:11:56.396Z,8.40
2022-11-23T20:14:22.997Z,8.40
2022-11-23T20:16:49.611Z,8.40
2022-11-23T20:19:16.157Z,8.40
2022-11-23T20:21:45.138Z,8.40
2022-11-23T20:24:14.662Z,8.40
2022-11-23T20:26:41.830Z,8.40
2022-11-23T20:29:08.794Z,8.40
2022-11-23T20:31:40.367Z,8.40
2022-11-23T20:34:13.119Z,8.40
2022-11-23T20:36:42.182Z,8.40
2022-11-23T20:39:14.033Z,8.30
2022-11-23T20:41:43.215Z,8.30
2022-11-23T20:44:11.092Z,8.30
2022-11-23T20:47:00.533Z,8.30
2022-11-23T20:49:24.553Z,8.40
2022-11-23T20:51:51.122Z,8.40
2022-11-23T20:54:17.706Z,8.30
2022-11-23T20:56:44.275Z,8.30
2022-11-23T20:59:11.602Z,8.30
2022-11-23T21:01:41.017Z,8.30
2022-11-23T21:04:08.807Z,8.30
2022-11-23T21:06:39.070Z,8.30
2022-11-23T21:09:07.173Z,8.30
2022-11-23T21:11:54.974Z,8.30
2022-11-23T21:14:24.315Z,8.30
2022-11-23T21:16:58.585Z,8.30
2022-11-23T21:19:27.356Z,8.30
2022-11-23T21:21:54.163Z,8.20
2022-11-23T21:24:20.702Z,8.20
2022-11-23T21:26:47.281Z,8.20
2022-11-23T21:29:13.807Z,8.20
2022-11-23T21:31:41.803Z,8.10
2022-11-23T21:34:17.525Z,8.10
2022-11-23T21:36:44.092Z,8.10
2022-11-23T21:39:11.402Z,8.10
2022-11-23T21:41:38.267Z,8.10
2022-11-23T21:44:05.826Z,8.10
2022-11-23T21:46:32.679Z,8.10
2022-11-23T21:49:00.198Z,8.00
2022-11-23T21:51:28.583Z,8.10
2022-11-23T21:53:55.983Z,8.00
2022-11-23T21:56:25.477Z,8.00
2022-11-23T21:58:54.459Z,8.00
2022-11-23T22:01:22.247Z,8.00
2022-11-23T22:03:49.835Z,8.00
2022-11-23T22:06:20.372Z,7.90
2022-11-23T22:08:48.259Z,7.90
2022-11-23T22:11:19.227Z,7.90
2022-11-23T22:13:45.903Z,7.90
2022-11-23T22:16:16.178Z,7.90
2022-11-23T22:18:43.322Z,7.90
2022-11-23T22:21:10.154Z,7.90
2022-11-23T22:23:36.907Z,7.90
2022-11-23T22:26:08.569Z,7.90
2022-11-23T22:28:37.111Z,7.90
2022-11-23T22:31:04.314Z,7.90
2022-11-23T22:33:31.069Z,7.90
2022-11-23T22:36:01.128Z,7.90
2022-11-23T22:38:32.667Z,7.80
2022-11-23T22:40:59.605Z,7.80
2022-11-23T22:43:26.677Z,7.80
2022-11-23T22:45:53.312Z,7.80
2022-11-23T22:48:21.970Z,7.70
2022-11-23T22:50:55.872Z,7.70
2022-11-23T22:53:22.537Z,7.70
2022-11-23T22:55:49.039Z,7.70
2022-11-23T22:58:17.886Z,7.70
2022-11-23T23:00:44.507Z,7.70
2022-11-23T23:03:11.136Z,7.70
2022-11-23T23:05:40.673Z,7.60
2022-11-23T23:08:07.235Z,7.60
2022-11-23T23:10:36.701Z,7.60
2022-11-23T23:13:03.273Z,7.60
2022-11-23T23:15:29.888Z,7.50
2022-11-23T23:17:56.633Z,7.50
2022-11-23T23:20:23.147Z,7.50
2022-11-23T23:22:49.736Z,7.50
2022-11-23T23:25:19.093Z,7.40
2022-11-23T23:27:48.119Z,7.50
2022-11-23T23:30:15.300Z,7.50
2022-11-23T23:32:42.069Z,7.40
2022-11-23T23:35:10.238Z,7.40
2022-11-23T23:37:39.302Z,7.40
2022-11-23T23:40:06.098Z,7.40
2022-11-23T23:42:35.228Z,7.40
2022-11-23T23:45:04.164Z,7.30
2022-11-23T23:47:30.786Z,7.30
2022-11-23T23:49:57.334Z,7.30
2022-11-23T23:52:23.868Z,7.30
2022-11-23T23:54:50.476Z,7.30
2022-11-23T23:57:17.007Z,7.20
2022-11-23T23:59:43.520Z,7.20
